createdAt,value
2022-11-21T00:01:53.517Z,19.00
2022-11-21T00:04:23.592Z,19.95
2022-11-21T00:06:53.693Z,18.80
2022-11-21T00:09:23.768Z,20.42
2022-11-21T00:11:53.782Z,19.40
2022-11-21T00:14:23.890Z,19.17
2022-11-21T00:16:57.350Z,18.85
2022-11-21T00:19:27.708Z,18.98
2022-11-21T00:21:57.759Z,18.27
2022-11-21T00:24:28.052Z,18.90
2022-11-21T00:26:58.303Z,19.58
2022-11-21T00:29:31.174Z,20.02
2022-11-21T00:32:01.491Z,17.90
2022-11-21T00:34:31.537Z,19.98
2022-11-21T00:37:01.563Z,19.33
2022-11-21T00:39:31.714Z,19.17
2022-11-21T00:42:01.755Z,18.08
2022-11-21T00:44:31.822Z,18.58
2022-11-21T00:47:01.925Z,17.48
2022-11-21T00:49:32.047Z,18.80
2022-11-21T00:52:02.428Z,18.13
2022-11-21T00:54:32.477Z,17.02
2022-11-21T00:57:02.711Z,17.67
2022-11-21T00:59:32.839Z,17.20
2022-11-21T01:02:02.947Z,17.65
2022-11-21T01:04:35.710Z,20.40
2022-11-21T01:07:05.763Z,18.83
2022-11-21T01:09:35.935Z,20.13
2022-11-21T01:12:07.136Z,18.75
2022-11-21T01:14:37.319Z,18.55
2022-11-21T01:17:07.421Z,18.73
2022-11-21T01:19:37.477Z,17.88
2022-11-21T01:22:07.560Z,18.17
2022-11-21T01:24:37.814Z,19.80
2022-11-21T01:27:07.858Z,18.33
2022-11-21T01:29:37.858Z,19.00
2022-11-21T01:32:08.277Z,18.50
2022-11-21T01:34:38.323Z,18.48
2022-11-21T01:37:08.456Z,18.40
2022-11-21T01:39:38.546Z,19.98
2022-11-21T01:42:14.648Z,19.73
2022-11-21T01:44:54.507Z,19.05
2022-11-21T01:47:24.620Z,17.42
2022-11-21T01:49:54.675Z,18.95
2022-11-21T01:52:34.132Z,18.02
2022-11-21T01:55:14.934Z,18.73
2022-11-21T01:57:49.779Z,18.23
2022-11-21T02:00:31.947Z,18.88
2022-11-21T02:03:14.040Z,20.17
2022-11-21T02:05:44.356Z,19.10
2022-11-21T02:08:21.376Z,18.50
2022-11-21T02:11:45.178Z,17.75
2022-11-21T02:14:16.118Z,18.20
2022-11-21T02:16:47.304Z,18.77
2022-11-21T02:20:10.570Z,19.55
2022-11-21T02:23:39.455Z,18.17
2022-11-21T02:26:11.443Z,19.20
2022-11-21T02:28:43.018Z,18.48
2022-11-21T02:31:13.041Z,18.42
2022-11-21T02:33:43.317Z,20.17
2022-11-21T02:36:47.560Z,20.30
2022-11-21T02:39:33.290Z,18.05
2022-11-21T02:42:17.062Z,18.90
2022-11-21T02:45:23.775Z,19.70
2022-11-21T02:48:02.275Z,18.75
2022-11-21T02:50:39.935Z,20.50
2022-11-21T02:53:18.280Z,18.92
2022-11-21T02:55:48.409Z,20.38
2022-11-21T02:58:15.909Z,21.05
2022-11-21T03:00:44.180Z,18.45
2022-11-21T03:03:16.984Z,19.48
2022-11-21T03:05:47.026Z,21.58
2022-11-21T03:08:17.126Z,20.88
2022-11-21T03:10:46.812Z,21.50
2022-11-21T03:13:16.564Z,21.73
2022-11-21T03:15:46.354Z,20.65
2022-11-21T03:18:16.133Z,22.60
2022-11-21T03:20:45.846Z,19.75
2022-11-21T03:23:15.566Z,20.58
2022-11-21T03:25:45.374Z,19.90
2022-11-21T03:28:15.119Z,22.02
2022-11-21T03:30:45.022Z,19.90
2022-11-21T03:33:14.681Z,19.70
2022-11-21T03:35:44.439Z,21.52
2022-11-21T03:38:17.651Z,21.33
2022-11-21T03:40:47.034Z,19.65
2022-11-21T03:43:16.863Z,18.63
2022-11-21T03:45:51.000Z,20.65
2022-11-21T03:48:18.077Z,19.48
2022-11-21T03:50:47.786Z,18.67
2022-11-21T03:53:17.521Z,21.15
2022-11-21T03:55:47.288Z,19.50
2022-11-21T03:58:16.989Z,20.08
2022-11-21T04:00:48.404Z,20.45
2022-11-21T04:03:18.120Z,19.33
2022-11-21T04:05:46.673Z,19.77
2022-11-21T04:08:17.505Z,19.85
2022-11-21T04:10:53.025Z,18.83
2022-11-21T04:13:22.289Z,20.17
2022-11-21T04:15:52.261Z,21.02
2022-11-21T04:18:20.320Z,17.48
2022-11-21T04:20:48.853Z,18.80
2022-11-21T04:23:17.206Z,21.08
2022-11-21T04:25:45.499Z,21.00
2022-11-21T04:28:15.105Z,20.58
2022-11-21T04:30:42.545Z,18.88
2022-11-21T04:33:14.931Z,18.33
2022-11-21T04:35:45.375Z,19.25
2022-11-21T04:38:15.626Z,20.25
2022-11-21T04:40:45.643Z,21.75
2022-11-21T04:43:15.781Z,20.20
2022-11-21T04:45:45.834Z,20.98
2022-11-21T04:48:15.381Z,19.92
2022-11-21T04:50:46.808Z,20.30
2022-11-21T04:53:16.530Z,18.63
2022-11-21T04:55:46.269Z,20.50
2022-11-21T04:58:15.990Z,21.65
2022-11-21T05:00:45.736Z,21.25
2022-11-21T05:03:15.918Z,20.75
2022-11-21T05:05:46.495Z,22.50
2022-11-21T05:08:15.758Z,21.00
2022-11-21T05:11:07.069Z,21.30
2022-11-21T05:13:37.095Z,20.15
2022-11-21T05:16:07.391Z,21.45
2022-11-21T05:18:37.445Z,21.38
2022-11-21T05:21:07.490Z,21.73
2022-11-21T05:23:37.562Z,21.75
2022-11-21T05:26:07.578Z,21.50
2022-11-21T05:28:37.656Z,19.00
2022-11-21T05:31:07.667Z,20.48
2022-11-21T05:33:37.683Z,18.77
2022-11-21T05:36:07.819Z,20.40
2022-11-21T05:38:37.827Z,21.23
2022-11-21T05:41:07.849Z,20.23
2022-11-21T05:43:46.937Z,19.63
2022-11-21T05:46:23.856Z,20.45
2022-11-21T05:48:54.777Z,19.15
2022-11-21T05:51:23.532Z,21.02
2022-11-21T05:53:53.303Z,21.27
2022-11-21T05:56:23.319Z,22.48
2022-11-21T05:58:57.155Z,22.08
2022-11-21T06:01:45.268Z,21.48
2022-11-21T06:04:15.120Z,20.20
2022-11-21T06:06:45.876Z,20.55
2022-11-21T06:09:14.657Z,20.35
2022-11-21T06:11:44.445Z,21.52
2022-11-21T06:14:14.030Z,20.83
2022-11-21T06:16:43.984Z,21.27
2022-11-21T06:19:13.598Z,20.63
2022-11-21T06:21:43.445Z,20.95
2022-11-21T06:24:16.010Z,20.38
2022-11-21T06:26:46.132Z,19.88
2022-11-21T06:29:16.922Z,20.08
2022-11-21T06:31:45.885Z,18.60
2022-11-21T06:34:14.516Z,22.85
2022-11-21T06:36:44.787Z,20.55
2022-11-21T06:39:14.806Z,22.80
2022-11-21T06:41:51.120Z,23.13
2022-11-21T06:44:21.427Z,21.80
2022-11-21T06:46:51.510Z,23.70
2022-11-21T06:49:22.340Z,23.73
2022-11-21T06:51:49.752Z,22.38
2022-11-21T06:54:18.216Z,24.92
2022-11-21T06:56:46.631Z,24.40
2022-11-21T06:59:15.032Z,21.58
2022-11-21T07:01:43.513Z,22.92
2022-11-21T07:04:12.687Z,23.60
2022-11-21T07:06:40.432Z,23.33
2022-11-21T07:09:32.217Z,22.10
2022-11-21T07:12:19.111Z,21.52
2022-11-21T07:14:49.276Z,23.08
2022-11-21T07:17:19.376Z,21.15
2022-11-21T07:19:49.433Z,21.70
2022-11-21T07:22:19.504Z,23.05
2022-11-21T07:24:49.610Z,23.95
2022-11-21T07:27:19.670Z,22.20
2022-11-21T07:29:49.837Z,23.33
2022-11-21T07:32:19.982Z,23.73
2022-11-21T07:34:50.032Z,25.05
2022-11-21T07:37:20.471Z,23.08
2022-11-21T07:39:50.538Z,23.95
2022-11-21T07:42:20.799Z,24.20
2022-11-21T07:44:50.844Z,21.88
2022-11-21T07:47:20.845Z,22.85
2022-11-21T07:49:50.910Z,24.42
2022-11-21T07:52:21.043Z,20.75
2022-11-21T07:54:51.301Z,23.33
2022-11-21T07:57:21.380Z,25.42
2022-11-21T07:59:51.504Z,23.85
2022-11-21T08:02:27.107Z,23.38
2022-11-21T08:04:57.113Z,24.63
2022-11-21T08:07:27.285Z,24.27
2022-11-21T08:09:57.495Z,24.52
2022-11-21T08:12:27.610Z,24.63
2022-11-21T08:14:58.187Z,24.15
2022-11-21T08:17:28.384Z,25.80
2022-11-21T08:20:00.345Z,26.55
2022-11-21T08:22:30.445Z,26.17
2022-11-21T08:25:00.472Z,28.67
2022-11-21T08:27:30.562Z,26.95
2022-11-21T08:30:00.608Z,29.58
2022-11-21T08:32:31.324Z,29.75
2022-11-21T08:35:02.025Z,29.67
2022-11-21T08:37:33.301Z,30.00
2022-11-21T08:40:03.695Z,29.52
2022-11-21T08:42:38.075Z,28.95
2022-11-21T08:45:09.151Z,28.10
2022-11-21T08:47:39.183Z,25.95
2022-11-21T08:50:09.634Z,25.65
2022-11-21T08:52:39.678Z,26.10
2022-11-21T08:55:09.809Z,23.48
2022-11-21T08:57:41.612Z,21.83
2022-11-21T09:00:13.830Z,24.73
2022-11-21T09:02:43.938Z,23.05
2022-11-21T09:05:14.098Z,21.88
2022-11-21T09:07:44.347Z,22.02
2022-11-21T09:10:15.220Z,23.38
2022-11-21T09:12:43.529Z,22.67
2022-11-21T09:15:30.643Z,22.77
2022-11-21T09:18:06.667Z,22.85
2022-11-21T09:20:44.991Z,22.83
2022-11-21T09:23:17.454Z,19.35
2022-11-21T09:25:47.028Z,19.48
2022-11-21T09:28:15.775Z,20.83
2022-11-21T09:30:44.298Z,22.58
2022-11-21T09:33:17.067Z,21.65
2022-11-21T09:35:48.060Z,23.65
2022-11-21T09:38:22.555Z,19.55
2022-11-21T09:41:40.424Z,18.13
2022-11-21T09:44:37.475Z,17.70
2022-11-21T09:47:40.875Z,18.65
2022-11-21T09:50:12.839Z,19.38
2022-11-21T09:53:11.518Z,18.08
2022-11-21T09:56:06.393Z,18.95
2022-11-21T09:58:51.296Z,17.70
2022-11-21T10:01:21.487Z,17.63
2022-11-21T10:03:52.757Z,16.25
2022-11-21T10:06:33.913Z,14.93
2022-11-21T10:09:51.656Z,16.52
2022-11-21T10:13:17.409Z,15.30
2022-11-21T10:17:08.613Z,16.05
2022-11-21T10:20:40.180Z,15.88
2022-11-21T10:23:24.734Z,16.17
2022-11-21T10:26:42.167Z,16.50
2022-11-21T10:29:11.998Z,15.57
2022-11-21T10:31:43.992Z,17.73
2022-11-21T10:34:38.479Z,16.35
2022-11-21T10:37:39.840Z,13.82
2022-11-21T10:40:45.946Z,13.85
2022-11-21T10:43:57.993Z,15.07
2022-11-21T10:46:28.036Z,15.18
2022-11-21T10:49:08.589Z,14.90
2022-11-21T10:52:12.850Z,14.32
2022-11-21T10:55:04.662Z,13.52
2022-11-21T10:57:52.759Z,14.30
2022-11-21T11:00:28.083Z,14.23
2022-11-21T11:03:07.277Z,15.73
2022-11-21T11:05:39.170Z,15.38
2022-11-21T11:08:15.315Z,15.07
2022-11-21T11:11:08.240Z,14.27
2022-11-21T11:14:02.007Z,15.27
2022-11-21T11:16:41.439Z,14.15
2022-11-21T11:19:14.647Z,15.55
2022-11-21T11:21:47.044Z,14.48
2022-11-21T11:24:17.534Z,16.20
2022-11-21T11:26:48.640Z,15.85
2022-11-21T11:29:25.925Z,16.13
2022-11-21T11:31:59.775Z,16.25
2022-11-21T11:35:03.151Z,15.80
2022-11-21T11:37:42.967Z,14.95
2022-11-21T11:40:44.085Z,15.43
2022-11-21T11:44:12.017Z,15.85
2022-11-21T11:47:18.548Z,15.27
2022-11-21T11:50:17.029Z,15.68
2022-11-21T11:53:01.572Z,15.50
2022-11-21T11:56:05.306Z,14.98
2022-11-21T11:59:13.085Z,16.77
2022-11-21T12:02:03.040Z,14.88
2022-11-21T12:05:15.247Z,14.18
2022-11-21T12:11:59.631Z,15.32
2022-11-21T12:16:01.732Z,16.47
2022-11-21T12:19:07.989Z,14.30
2022-11-21T12:21:38.142Z,14.57
2022-11-21T12:24:12.307Z,16.80
2022-11-21T12:27:16.623Z,13.77
2022-11-21T12:30:54.037Z,13.82
2022-11-21T12:33:24.928Z,13.10
2022-11-21T12:36:49.524Z,15.30
2022-11-21T12:39:53.436Z,14.85
2022-11-21T12:43:07.068Z,14.75
2022-11-21T12:46:02.530Z,14.77
2022-11-21T12:50:06.241Z,15.38
2022-11-21T12:53:49.695Z,16.80
2022-11-21T12:56:56.557Z,15.15
2022-11-21T12:59:30.820Z,16.20
2022-11-21T13:02:34.205Z,14.05
2022-11-21T13:05:24.846Z,14.55
2022-11-21T13:08:24.750Z,16.15
2022-11-21T13:12:00.209Z,14.48
2022-11-21T13:15:19.389Z,15.10
2022-11-21T13:18:24.370Z,14.23
2022-11-21T13:20:54.514Z,15.27
2022-11-21T13:23:43.015Z,17.60
2022-11-21T13:26:24.812Z,16.08
2022-11-21T13:29:16.543Z,17.20
2022-11-21T13:34:46.677Z,15.77
2022-11-21T13:38:02.924Z,14.80
2022-11-21T13:41:00.865Z,14.70
2022-11-21T13:43:34.184Z,15.38
2022-11-21T13:46:05.028Z,17.10
2022-11-21T13:49:20.967Z,14.35
2022-11-21T13:51:55.869Z,14.77
2022-11-21T13:54:40.660Z,13.70
2022-11-21T13:58:07.757Z,13.18
2022-11-21T14:00:56.297Z,14.98
2022-11-21T14:04:17.005Z,16.02
2022-11-21T14:06:45.807Z,17.13
2022-11-21T14:09:48.191Z,15.93
2022-11-21T14:12:44.523Z,15.43
2022-11-21T14:15:47.182Z,16.35
2022-11-21T14:18:26.790Z,18.00
2022-11-21T14:21:04.704Z,18.70
2022-11-21T14:23:43.123Z,17.75
2022-11-21T14:26:21.433Z,17.20
2022-11-21T14:28:52.740Z,16.25
2022-11-21T14:31:22.829Z,16.05
2022-11-21T14:33:58.439Z,17.65
2022-11-21T14:36:31.674Z,18.60
2022-11-21T14:42:16.345Z,17.77
2022-11-21T14:44:46.432Z,18.88
2022-11-21T14:47:26.571Z,17.08
2022-11-21T14:50:02.294Z,16.95
2022-11-21T14:52:34.562Z,16.60
2022-11-21T14:55:31.736Z,15.95
2022-11-21T14:58:06.329Z,16.60
2022-11-21T15:01:03.539Z,16.90
2022-11-21T15:03:24.390Z,15.98
2022-11-21T15:06:07.316Z,17.38
2022-11-21T15:12:03.608Z,17.45
2022-11-21T15:15:00.697Z,17.90
2022-11-21T15:17:32.314Z,16.30
2022-11-21T15:20:22.466Z,16.02
2022-11-21T15:22:58.986Z,16.30
2022-11-21T15:25:47.453Z,16.55
2022-11-21T15:28:19.108Z,16.27
2022-11-21T15:30:46.359Z,15.60
2022-11-21T15:33:19.159Z,16.30
2022-11-21T15:35:57.866Z,16.90
2022-11-21T15:38:47.161Z,16.37
2022-11-21T15:41:16.755Z,15.40
2022-11-21T15:43:55.213Z,15.23
2022-11-21T15:46:33.012Z,14.95
2022-11-21T15:49:31.537Z,16.55
2022-11-21T15:52:07.117Z,16.63
2022-11-21T15:54:39.032Z,16.60
2022-11-21T15:57:10.221Z,15.63
2022-11-21T15:59:40.264Z,16.73
2022-11-21T16:02:14.660Z,16.02
2022-11-21T16:04:44.167Z,17.88
2022-11-21T16:07:14.030Z,19.15
2022-11-21T16:09:45.984Z,17.50
2022-11-21T16:12:18.780Z,16.70
2022-11-21T16:14:48.857Z,16.00
2022-11-21T16:17:19.001Z,16.05
2022-11-21T16:19:49.570Z,17.35
2022-11-21T16:22:28.321Z,16.42
2022-11-21T16:24:58.371Z,16.10
2022-11-21T16:27:28.498Z,16.23
2022-11-21T16:29:58.509Z,18.45
2022-11-21T16:32:28.776Z,17.92
2022-11-21T16:34:59.262Z,18.13
2022-11-21T16:37:32.756Z,17.42
2022-11-21T16:40:00.749Z,17.67
2022-11-21T16:42:28.465Z,16.45
2022-11-21T16:44:55.953Z,18.45
2022-11-21T16:47:24.447Z,17.83
2022-11-21T16:49:52.995Z,18.30
2022-11-21T16:52:22.497Z,18.27
2022-11-21T16:54:50.829Z,20.02
2022-11-21T16:57:19.193Z,21.27
2022-11-21T16:59:47.804Z,19.95
2022-11-21T17:02:16.179Z,17.58
2022-11-21T17:04:44.573Z,18.45
2022-11-21T17:07:13.115Z,18.95
2022-11-21T17:09:41.414Z,19.30
2022-11-21T17:12:16.660Z,19.25
2022-11-21T17:14:45.404Z,21.25
2022-11-21T17:17:14.281Z,20.83
2022-11-21T17:19:44.568Z,20.83
2022-11-21T17:22:14.355Z,19.58
2022-11-21T17:24:42.097Z,20.58
2022-11-21T17:27:11.765Z,20.95
2022-11-21T17:29:41.608Z,20.30
2022-11-21T17:32:11.318Z,22.50
2022-11-21T17:34:41.522Z,21.92
2022-11-21T17:37:11.131Z,23.20
2022-11-21T17:39:41.369Z,22.73
2022-11-21T17:42:12.528Z,22.42
2022-11-21T17:44:42.219Z,22.88
2022-11-21T17:47:11.982Z,23.17
2022-11-21T17:49:41.845Z,23.48
2022-11-21T17:52:11.828Z,22.98
2022-11-21T17:54:39.376Z,24.20
2022-11-21T17:57:07.456Z,22.23
2022-11-21T17:59:38.890Z,21.95
2022-11-21T18:02:09.213Z,23.67
2022-11-21T18:04:39.176Z,25.25
2022-11-21T18:07:09.133Z,20.75
2022-11-21T18:09:38.863Z,24.50
2022-11-21T18:12:12.996Z,22.13
2022-11-21T18:14:43.868Z,24.08
2022-11-21T18:17:12.794Z,24.83
2022-11-21T18:19:42.639Z,23.17
2022-11-21T18:22:10.334Z,23.70
2022-11-21T18:24:40.164Z,26.77
2022-11-21T18:27:10.063Z,27.02
2022-11-21T18:29:39.867Z,26.02
2022-11-21T18:32:09.622Z,24.60
2022-11-21T18:34:39.334Z,24.58
2022-11-21T18:37:09.132Z,27.33
2022-11-21T18:39:39.017Z,27.80
2022-11-21T18:42:13.669Z,25.90
2022-11-21T18:44:43.174Z,26.83
2022-11-21T18:47:20.067Z,23.83
2022-11-21T18:49:48.889Z,23.33
2022-11-21T18:52:17.101Z,22.63
2022-11-21T18:54:47.033Z,22.20
2022-11-21T18:57:17.175Z,22.35
2022-11-21T18:59:47.118Z,20.48
2022-11-21T19:02:17.283Z,20.52
2022-11-21T19:04:47.087Z,20.58
2022-11-21T19:07:16.889Z,21.38
2022-11-21T19:09:46.704Z,21.67
2022-11-21T19:12:17.722Z,20.45
2022-11-21T19:14:50.254Z,19.85
2022-11-21T19:17:18.655Z,20.27
2022-11-21T19:19:48.581Z,19.40
2022-11-21T19:22:18.770Z,19.70
2022-11-21T19:24:48.620Z,20.80
2022-11-21T19:27:24.341Z,19.38
2022-11-21T19:29:55.345Z,18.20
2022-11-21T19:32:25.357Z,18.90
2022-11-21T19:34:55.202Z,17.88
2022-11-21T19:37:25.100Z,18.98
2022-11-21T19:39:54.804Z,20.23
2022-11-21T19:42:25.104Z,17.75
2022-11-21T19:44:54.953Z,16.45
2022-11-21T19:47:26.826Z,18.38
2022-11-21T19:49:56.862Z,16.63
2022-11-21T19:52:28.226Z,18.98
2022-11-21T19:54:58.383Z,17.05
2022-11-21T19:57:29.231Z,16.65
2022-11-21T19:59:59.260Z,16.58
2022-11-21T20:02:30.682Z,16.10
2022-11-21T20:05:01.078Z,15.93
2022-11-21T20:07:34.332Z,15.20
2022-11-21T20:10:10.100Z,16.67
2022-11-21T20:12:39.659Z,15.82
2022-11-21T20:15:10.301Z,17.08
2022-11-21T20:17:37.904Z,15.95
2022-11-21T20:20:07.949Z,17.00
2022-11-21T20:22:39.562Z,17.08
2022-11-21T20:25:08.278Z,17.25
2022-11-21T20:27:36.265Z,15.02
2022-11-21T20:30:05.763Z,16.60
2022-11-21T20:32:35.988Z,16.98
2022-11-21T20:35:06.075Z,17.83
2022-11-21T20:37:35.274Z,17.33
2022-11-21T20:40:06.077Z,17.83
2022-11-21T20:42:35.061Z,15.90
2022-11-21T20:47:53.918Z,19.33
2022-11-21T20:51:01.401Z,21.00
2022-11-21T20:56:07.494Z,18.30
2022-11-21T20:58:43.488Z,17.70
2022-11-21T21:01:19.242Z,19.10
2022-11-21T21:03:48.321Z,17.75
2022-11-21T21:06:17.689Z,17.50
2022-11-21T21:08:48.261Z,19.10
2022-11-21T21:14:13.024Z,18.65
2022-11-21T21:16:43.933Z,17.38
2022-11-21T21:19:12.596Z,16.88
2022-11-21T21:21:42.336Z,16.90
2022-11-21T21:24:13.939Z,17.90
2022-11-21T21:26:48.191Z,17.10
2022-11-21T21:29:21.483Z,15.98
2022-11-21T21:31:52.588Z,15.25
2022-11-21T21:34:23.861Z,14.82
2022-11-21T21:36:53.421Z,16.75
2022-11-21T21:39:21.779Z,16.38
2022-11-21T21:41:50.287Z,16.40
2022-11-21T21:44:19.845Z,15.48
2022-11-21T21:46:47.307Z,16.08
2022-11-21T21:49:16.043Z,14.68
2022-11-21T21:51:44.158Z,16.60
2022-11-21T21:54:21.926Z,18.20
2022-11-21T21:59:21.534Z,15.32
2022-11-21T22:01:51.740Z,14.35
2022-11-21T22:04:21.425Z,16.65
2022-11-21T22:06:51.193Z,15.02
2022-11-21T22:09:21.799Z,15.07
2022-11-21T22:11:51.238Z,15.98
2022-11-21T22:14:21.126Z,15.45
2022-11-21T22:16:52.100Z,16.77
2022-11-21T22:19:21.950Z,15.60
2022-11-21T22:21:51.993Z,16.10
2022-11-21T22:24:26.646Z,15.90
2022-11-21T22:26:55.213Z,16.55
2022-11-21T22:29:22.719Z,15.88
2022-11-21T22:31:52.713Z,15.68
2022-11-21T22:34:22.812Z,16.92
2022-11-21T22:36:51.950Z,16.80
2022-11-21T22:39:20.234Z,16.73
2022-11-21T22:41:48.810Z,15.90
2022-11-21T22:44:17.420Z,16.23
2022-11-21T22:46:46.700Z,16.58
2022-11-21T22:49:15.151Z,16.95
2022-11-21T22:51:45.057Z,16.23
2022-11-21T22:54:13.023Z,17.77
2022-11-21T22:56:41.091Z,17.77
2022-11-21T22:59:13.962Z,17.80
2022-11-21T23:01:41.989Z,17.38
2022-11-21T23:04:14.694Z,19.13
2022-11-21T23:06:47.585Z,18.55
2022-11-21T23:09:17.381Z,19.77
2022-11-21T23:11:47.261Z,19.48
2022-11-21T23:14:18.013Z,19.73
2022-11-21T23:16:46.831Z,20.08
2022-11-21T23:19:16.832Z,17.33
2022-11-21T23:21:49.050Z,18.55
2022-11-21T23:24:16.536Z,17.92
2022-11-21T23:26:45.934Z,17.67
2022-11-21T23:29:15.628Z,19.25
2022-11-21T23:31:45.382Z,18.38
2022-11-21T23:34:15.164Z,19.23
2022-11-21T23:36:43.705Z,18.55
2022-11-21T23:39:11.669Z,20.17
2022-11-21T23:41:40.969Z,19.92
2022-11-21T23:44:10.749Z,17.77
2022-11-21T23:46:40.569Z,18.58
2022-11-21T23:49:10.648Z,18.92
2022-11-21T23:51:40.229Z,18.00
2022-11-21T23:54:09.961Z,19.48
2022-11-21T23:56:39.581Z,19.85
2022-11-21T23:59:09.223Z,17.98
